createdAt,value
2017-09-03T00:00:45.695Z,98335.45
2017-09-03T00:03:14.011Z,98331.61
2017-09-03T00:05:42.326Z,98319.24
2017-09-03T00:08:10.678Z,98320.97
2017-09-03T00:10:38.999Z,98320.54
2017-09-03T00:13:07.330Z,98321.83
2017-09-03T00:15:35.675Z,98320.53
2017-09-03T00:18:03.993Z,98322.66
2017-09-03T00:20:32.315Z,98323.06
2017-09-03T00:23:00.667Z,98329.52
2017-09-03T00:25:28.995Z,98328.63
2017-09-03T00:27:57.330Z,98333.33
2017-09-03T00:30:25.673Z,98329.06
2017-09-03T00:32:53.994Z,98326.91
2017-09-03T00:35:22.318Z,98326.52
2017-09-03T00:37:50.678Z,98327.38
2017-09-03T00:40:19.008Z,98327.81
2017-09-03T00:42:47.323Z,98329.94
2017-09-03T00:45:15.684Z,98334.65
2017-09-03T00:47:43.999Z,98334.64
2017-09-03T00:50:12.338Z,98333.34
2017-09-03T00:52:40.695Z,98328.66
2017-09-03T00:55:09.018Z,98324.41
2017-09-03T00:57:37.334Z,98326.53
2017-09-03T01:00:05.688Z,98329.95
2017-09-03T01:02:34.020Z,98334.20
2017-09-03T01:05:02.337Z,98330.36
2017-09-03T01:07:30.709Z,98330.78
2017-09-03T01:09:59.080Z,98322.26
2017-09-03T01:12:28.294Z,98323.91
2017-09-03T01:14:56.647Z,98317.52
2017-09-03T01:17:24.962Z,98308.16
2017-09-03T01:19:53.281Z,98309.43
2017-09-03T01:22:21.631Z,98312.00
2017-09-03T01:24:49.950Z,98318.81
2017-09-03T01:27:18.270Z,98323.92
2017-09-03T01:29:46.655Z,98322.67
2017-09-03T01:32:14.994Z,98322.25
2017-09-03T01:34:43.316Z,98323.11
2017-09-03T01:37:11.674Z,98320.53
2017-09-03T01:39:40.003Z,98318.42
2017-09-03T01:42:08.329Z,98324.39
2017-09-03T01:44:36.667Z,98328.67
2017-09-03T01:47:04.986Z,98323.52
2017-09-03T01:49:33.318Z,98324.39
2017-09-03T01:52:01.674Z,98319.67
2017-09-03T01:54:30.002Z,98315.87
2017-09-03T01:56:58.323Z,98313.70
2017-09-03T01:59:26.683Z,98310.73
2017-09-03T02:01:54.999Z,98311.14
2017-09-03T02:04:23.340Z,98307.33
2017-09-03T02:06:51.679Z,98312.88
2017-09-03T02:09:20.007Z,98311.97
2017-09-03T02:11:48.350Z,98317.08
2017-09-03T02:14:16.669Z,98316.23
2017-09-03T02:16:45.009Z,98323.95
2017-09-03T02:19:13.335Z,98321.81
2017-09-03T02:21:41.691Z,98312.02
2017-09-03T02:24:10.022Z,98317.13
2017-09-03T02:26:38.339Z,98312.02
2017-09-03T02:29:06.690Z,98310.73
2017-09-03T02:31:35.016Z,98308.17
2017-09-03T02:34:03.343Z,98311.59
2017-09-03T02:36:31.679Z,98305.16
2017-09-03T02:38:59.994Z,98303.00
2017-09-03T02:41:28.366Z,98316.57
2017-09-03T02:43:56.712Z,98312.33
2017-09-03T02:46:25.035Z,98310.66
2017-09-03T02:48:53.362Z,98310.25
2017-09-03T02:51:21.705Z,98314.50
2017-09-03T02:53:50.043Z,98308.13
2017-09-03T02:56:18.352Z,98310.23
2017-09-03T02:58:46.695Z,98311.54
2017-09-03T03:01:15.035Z,98307.24
2017-09-03T03:03:43.358Z,98310.67
2017-09-03T03:06:11.679Z,98311.56
2017-09-03T03:08:40.025Z,98310.69
2017-09-03T03:11:08.343Z,98305.62
2017-09-03T03:13:36.665Z,98302.17
2017-09-03T03:16:05.002Z,98304.29
2017-09-03T03:18:33.331Z,98307.23
2017-09-03T03:21:01.675Z,98311.34
2017-09-03T03:23:30.002Z,98308.87
2017-09-03T03:25:58.340Z,98302.56
2017-09-03T03:28:26.661Z,98306.41
2017-09-03T03:30:55.016Z,98304.70
2017-09-03T03:33:23.338Z,98306.43
2017-09-03T03:35:51.659Z,98311.11
2017-09-03T03:38:20.001Z,98300.74
2017-09-03T03:40:48.313Z,98304.17
2017-09-03T03:43:16.643Z,98297.83
2017-09-03T03:45:44.986Z,98294.84
2017-09-03T03:48:13.298Z,98285.91
2017-09-03T03:50:41.653Z,98284.20
2017-09-03T03:53:09.987Z,98287.19
2017-09-03T03:55:38.300Z,98271.44
2017-09-03T03:58:06.686Z,98272.27
2017-09-03T04:00:34.998Z,98268.88
2017-09-03T04:03:03.337Z,98266.31
2017-09-03T04:05:31.647Z,98267.60
2017-09-03T04:07:59.966Z,98275.28
2017-09-03T04:10:28.315Z,98275.28
2017-09-03T04:12:56.644Z,98269.30
2017-09-03T04:15:24.958Z,98268.44
2017-09-03T04:17:53.298Z,98268.43
2017-09-03T04:20:21.612Z,98264.59
2017-09-03T04:22:49.925Z,98264.17
2017-09-03T04:25:18.267Z,98264.59
2017-09-03T04:27:46.578Z,98262.02
2017-09-03T04:30:14.904Z,98269.28
2017-09-03T04:32:43.256Z,98262.85
2017-09-03T04:35:11.588Z,98264.56
2017-09-03T04:37:39.897Z,98257.75
2017-09-03T04:40:08.236Z,98255.61
2017-09-03T04:42:36.550Z,98256.05
2017-09-03T04:45:04.875Z,98256.45
2017-09-03T04:47:33.213Z,98261.52
2017-09-03T04:50:01.522Z,98263.23
2017-09-03T04:52:29.866Z,98257.73
2017-09-03T04:54:58.191Z,98255.06
2017-09-03T04:57:26.527Z,98254.64
2017-09-03T04:59:54.867Z,98253.41
2017-09-03T05:02:23.179Z,98251.33
2017-09-03T05:04:52.303Z,98244.09
2017-09-03T05:07:20.629Z,98243.66
2017-09-03T05:09:48.979Z,98248.73
2017-09-03T05:12:17.298Z,98250.05
2017-09-03T05:14:45.621Z,98257.28
2017-09-03T05:17:13.958Z,98253.47
2017-09-03T05:19:42.268Z,98250.08
2017-09-03T05:22:10.609Z,98249.23
2017-09-03T05:24:38.922Z,98248.80
2017-09-03T05:27:07.254Z,98248.37
2017-09-03T05:29:35.604Z,98242.41
2017-09-03T05:32:03.924Z,98244.98
2017-09-03T05:34:32.239Z,98239.44
2017-09-03T05:37:00.587Z,98241.99
2017-09-03T05:39:28.921Z,98244.12
2017-09-03T05:41:57.235Z,98245.81
2017-09-03T05:44:25.575Z,98246.27
2017-09-03T05:46:53.886Z,98244.55
2017-09-03T05:49:22.243Z,98252.66
2017-09-03T05:51:50.575Z,98248.38
2017-09-03T05:54:18.923Z,98246.24
2017-09-03T05:56:47.245Z,98253.06
2017-09-03T05:59:15.563Z,98256.06
2017-09-03T06:01:43.894Z,98251.80
2017-09-03T06:04:12.204Z,98249.66
2017-09-03T06:06:40.542Z,98247.52
2017-09-03T06:09:08.862Z,98251.78
2017-09-03T06:11:37.178Z,98256.92
2017-09-03T06:14:05.520Z,98252.27
2017-09-03T06:16:33.854Z,98252.64
2017-09-03T06:19:02.176Z,98253.52
2017-09-03T06:21:30.530Z,98257.38
2017-09-03T06:23:58.846Z,98250.55
2017-09-03T06:26:27.190Z,98250.08
2017-09-03T06:28:55.514Z,98246.27
2017-09-03T06:31:23.854Z,98249.64
2017-09-03T06:33:52.174Z,98243.26
2017-09-03T06:36:20.501Z,98247.02
2017-09-03T06:38:48.850Z,98250.42
2017-09-03T06:41:17.183Z,98252.50
2017-09-03T06:43:45.547Z,98253.27
2017-09-03T06:46:13.871Z,98253.30
2017-09-03T06:48:42.198Z,98254.09
2017-09-03T06:51:10.546Z,98242.09
2017-09-03T06:53:38.866Z,98251.76
2017-09-03T06:56:07.186Z,98248.69
2017-09-03T06:58:35.547Z,98260.19
2017-09-03T07:01:03.876Z,98266.60
2017-09-03T07:03:32.236Z,98261.40
2017-09-03T07:06:00.570Z,98258.70
2017-09-03T07:08:28.903Z,98263.23
2017-09-03T07:10:57.253Z,98261.91
2017-09-03T07:13:25.635Z,98253.68
2017-09-03T07:15:53.974Z,98255.84
2017-09-03T07:18:22.294Z,98255.24
2017-09-03T07:20:50.646Z,98254.30
2017-09-03T07:23:18.964Z,98251.40
2017-09-03T07:25:47.281Z,98247.74
2017-09-03T07:28:15.648Z,98248.11
2017-09-03T07:30:43.957Z,98249.27
2017-09-03T07:33:12.275Z,98253.59
2017-09-03T07:35:40.629Z,98260.64
2017-09-03T07:38:08.965Z,98255.09
2017-09-03T07:40:37.282Z,98251.12
2017-09-03T07:43:05.625Z,98248.03
2017-09-03T07:45:33.946Z,98247.50
2017-09-03T07:48:02.295Z,98255.64
2017-09-03T07:50:30.616Z,98257.74
2017-09-03T07:52:58.942Z,98250.75
2017-09-03T07:55:27.290Z,98248.84
2017-09-03T07:57:55.603Z,98249.88
2017-09-03T08:00:23.952Z,98242.84
2017-09-03T08:02:52.283Z,98248.33
2017-09-03T08:05:20.635Z,98246.60
2017-09-03T08:07:48.958Z,98241.75
2017-09-03T08:10:17.299Z,98241.08
2017-09-03T08:12:45.615Z,98247.78
2017-09-03T08:15:13.951Z,98245.77
2017-09-03T08:17:42.276Z,98242.42
2017-09-03T08:20:10.631Z,98239.13
2017-09-03T08:22:38.955Z,98243.59
2017-09-03T08:25:07.279Z,98240.83
2017-09-03T08:27:35.634Z,98247.08
2017-09-03T08:30:03.967Z,98240.72
2017-09-03T08:32:32.289Z,98239.76
2017-09-03T08:35:00.631Z,98241.37
2017-09-03T08:37:28.948Z,98243.41
2017-09-03T08:39:57.295Z,98244.34
2017-09-03T08:42:25.643Z,98238.73
2017-09-03T08:44:54.026Z,98231.77
2017-09-03T08:47:22.349Z,98229.21
2017-09-03T08:49:50.671Z,98231.45
2017-09-03T08:52:19.031Z,98233.48
2017-09-03T08:54:47.350Z,98230.38
2017-09-03T08:57:15.675Z,98225.80
2017-09-03T08:59:44.033Z,98225.87
2017-09-03T09:02:12.362Z,98220.14
2017-09-03T09:04:40.694Z,98212.42
2017-09-03T09:07:09.035Z,98207.48
2017-09-03T09:09:37.366Z,98208.13
2017-09-03T09:12:05.710Z,98204.05
2017-09-03T09:14:34.039Z,98205.98
2017-09-03T09:17:02.378Z,98202.55
2017-09-03T09:19:30.728Z,98206.16
2017-09-03T09:21:59.074Z,98204.53
2017-09-03T09:24:27.390Z,98195.45
2017-09-03T09:26:55.747Z,98186.28
2017-09-03T09:29:24.071Z,98186.83
2017-09-03T09:31:52.408Z,98189.62
2017-09-03T09:34:20.754Z,98185.36
2017-09-03T09:36:49.076Z,98186.16
2017-09-03T09:39:17.418Z,98189.95
2017-09-03T09:41:45.730Z,98183.64
2017-09-03T09:44:14.082Z,98190.08
2017-09-03T09:46:42.398Z,98187.30
2017-09-03T09:49:10.754Z,98188.33
2017-09-03T09:51:39.070Z,98183.12
2017-09-03T09:54:07.423Z,98183.82
2017-09-03T09:56:35.745Z,98181.94
2017-09-03T09:59:04.068Z,98180.80
2017-09-03T10:01:32.421Z,98172.66
2017-09-03T10:04:00.739Z,98170.52
2017-09-03T10:06:29.083Z,98172.16
2017-09-03T10:08:57.406Z,98166.25
2017-09-03T10:11:25.740Z,98165.33
2017-09-03T10:13:54.089Z,98162.88
2017-09-03T10:16:22.402Z,98161.56
2017-09-03T10:18:50.747Z,98161.09
2017-09-03T10:21:19.062Z,98153.08
2017-09-03T10:23:47.383Z,98147.90
2017-09-03T10:26:15.762Z,98156.81
2017-09-03T10:28:44.086Z,98158.14
2017-09-03T10:31:12.436Z,98153.90
2017-09-03T10:33:40.770Z,98161.02
2017-09-03T10:36:09.116Z,98157.49
2017-09-03T10:38:37.434Z,98145.66
2017-09-03T10:41:05.747Z,98144.09
2017-09-03T10:43:34.087Z,98149.30
2017-09-03T10:46:02.404Z,98150.44
2017-09-03T10:48:30.746Z,98142.17
2017-09-03T10:50:59.074Z,98142.09
2017-09-03T10:53:27.418Z,98142.16
2017-09-03T10:55:55.742Z,98139.45
2017-09-03T10:58:24.060Z,98145.02
2017-09-03T11:00:52.482Z,98141.45
2017-09-03T11:03:20.826Z,98141.28
2017-09-03T11:05:49.142Z,98138.00
2017-09-03T11:08:17.483Z,98135.48
2017-09-03T11:10:45.823Z,98130.83
2017-09-03T11:13:14.144Z,98130.04
2017-09-03T11:15:42.469Z,98127.59
2017-09-03T11:18:10.811Z,98121.70
2017-09-03T11:20:39.131Z,98120.29
2017-09-03T11:23:07.493Z,98115.92
2017-09-03T11:25:35.810Z,98121.59
2017-09-03T11:28:04.159Z,98108.13
2017-09-03T11:30:32.483Z,98112.11
2017-09-03T11:33:00.807Z,98103.53
2017-09-03T11:35:29.199Z,98105.17
2017-09-03T11:37:57.523Z,98105.72
2017-09-03T11:40:25.877Z,98112.20
2017-09-03T11:42:54.202Z,98101.41
2017-09-03T11:45:22.547Z,98100.59
2017-09-03T11:47:50.878Z,98093.67
2017-09-03T11:50:19.195Z,98092.66
2017-09-03T11:52:47.545Z,98090.93
2017-09-03T11:55:15.872Z,98093.03
2017-09-03T11:57:44.206Z,98088.72
2017-09-03T12:00:12.551Z,98090.53
2017-09-03T12:02:40.885Z,98085.80
2017-09-03T12:05:09.216Z,98084.84
2017-09-03T12:07:37.562Z,98080.31
2017-09-03T12:10:05.886Z,98078.73
2017-09-03T12:12:34.216Z,98083.06
2017-09-03T12:15:02.563Z,98082.25
2017-09-03T12:17:30.905Z,98083.69
2017-09-03T12:19:59.252Z,98077.84
2017-09-03T12:22:27.581Z,98079.87
2017-09-03T12:24:55.895Z,98071.75
2017-09-03T12:27:24.242Z,98073.23
2017-09-03T12:29:52.571Z,98064.42
2017-09-03T12:32:20.892Z,98072.66
2017-09-03T12:34:49.242Z,98063.73
2017-09-03T12:37:17.571Z,98064.05
2017-09-03T12:39:45.897Z,98067.81
2017-09-03T12:42:14.243Z,98070.42
2017-09-03T12:44:42.574Z,98065.57
2017-09-03T12:47:10.913Z,98071.55
2017-09-03T12:49:39.232Z,98063.45
2017-09-03T12:52:07.556Z,98063.50
2017-09-03T12:54:35.898Z,98061.09
2017-09-03T12:57:04.223Z,98054.72
2017-09-03T12:59:32.552Z,98062.35
2017-09-03T13:02:00.897Z,98065.03
2017-09-03T13:04:29.219Z,98066.22
2017-09-03T13:06:57.561Z,98062.08
2017-09-03T13:09:25.891Z,98061.75
2017-09-03T13:11:54.312Z,98055.95
2017-09-03T13:14:22.639Z,98058.20
2017-09-03T13:16:50.974Z,98057.52
2017-09-03T13:19:19.318Z,98059.97
2017-09-03T13:21:47.646Z,98055.03
2017-09-03T13:24:16.562Z,98050.55
2017-09-03T13:26:44.881Z,98041.80
2017-09-03T13:29:13.203Z,98045.33
2017-09-03T13:31:41.552Z,98045.86
2017-09-03T13:34:09.875Z,98035.57
2017-09-03T13:36:38.197Z,98035.58
2017-09-03T13:39:06.550Z,98038.61
2017-09-03T13:41:34.870Z,98042.11
2017-09-03T13:44:03.218Z,98037.51
2017-09-03T13:46:31.548Z,98038.44
2017-09-03T13:48:59.866Z,98038.91
2017-09-03T13:51:28.206Z,98038.28
2017-09-03T13:53:56.534Z,98043.31
2017-09-03T13:56:24.872Z,98037.86
2017-09-03T13:58:53.215Z,98037.69
2017-09-03T14:01:21.547Z,98039.53
2017-09-03T14:03:49.871Z,98037.95
2017-09-03T14:06:18.212Z,98039.38
2017-09-03T14:08:46.537Z,98031.84
2017-09-03T14:11:14.879Z,98036.73
2017-09-03T14:13:43.205Z,98036.98
2017-09-03T14:16:11.518Z,98031.80
2017-09-03T14:18:39.866Z,98028.93
2017-09-03T14:21:08.182Z,98026.51
2017-09-03T14:23:36.551Z,98023.62
2017-09-03T14:26:04.895Z,98025.13
2017-09-03T14:28:33.226Z,98026.08
2017-09-03T14:31:01.570Z,98022.28
2017-09-03T14:33:29.903Z,98019.60
2017-09-03T14:35:58.222Z,98016.38
2017-09-03T14:38:26.576Z,98009.16
2017-09-03T14:40:54.895Z,98014.69
2017-09-03T14:43:23.208Z,98012.45
2017-09-03T14:45:51.559Z,98018.13
2017-09-03T14:48:19.875Z,98015.94
2017-09-03T14:50:48.238Z,98019.91
2017-09-03T14:53:16.553Z,98017.89
2017-09-03T14:55:44.910Z,98016.59
2017-09-03T14:58:13.315Z,98015.53
2017-09-03T15:00:41.635Z,98005.34
2017-09-03T15:03:09.986Z,98005.17
2017-09-03T15:05:38.327Z,98000.83
2017-09-03T15:08:06.644Z,97993.72
2017-09-03T15:10:34.970Z,98000.58
2017-09-03T15:13:03.317Z,97998.05
2017-09-03T15:15:31.638Z,97997.66
2017-09-03T15:17:59.980Z,97995.09
2017-09-03T15:20:28.317Z,97991.96
2017-09-03T15:22:56.639Z,97982.62
2017-09-03T15:25:24.978Z,97986.89
2017-09-03T15:27:53.322Z,97987.53
2017-09-03T15:30:21.653Z,97983.02
2017-09-03T15:32:49.990Z,97978.38
2017-09-03T15:35:18.314Z,97977.81
2017-09-03T15:37:46.664Z,97983.99
2017-09-03T15:40:14.986Z,97981.98
2017-09-03T15:42:43.330Z,97980.25
2017-09-03T15:45:11.662Z,97970.66
2017-09-03T15:47:39.995Z,97968.23
2017-09-03T15:50:08.343Z,97980.00
2017-09-03T15:52:36.680Z,97974.06
2017-09-03T15:55:05.014Z,97971.99
2017-09-03T15:57:33.363Z,97977.67
2017-09-03T16:00:01.684Z,97985.66
2017-09-03T16:02:30.044Z,97982.64
2017-09-03T16:04:58.370Z,97977.36
2017-09-03T16:07:26.705Z,97978.55
2017-09-03T16:09:55.059Z,97972.52
2017-09-03T16:12:23.389Z,97967.34
2017-09-03T16:14:51.735Z,97966.88
2017-09-03T16:17:20.051Z,97969.34
2017-09-03T16:19:48.404Z,97971.91
2017-09-03T16:22:16.722Z,97972.55
2017-09-03T16:24:45.047Z,97973.84
2017-09-03T16:27:13.393Z,97970.70
2017-09-03T16:29:41.726Z,97980.23
2017-09-03T16:32:10.083Z,97976.04
2017-09-03T16:34:38.423Z,97970.81
2017-09-03T16:37:06.755Z,97970.92
2017-09-03T16:39:35.102Z,97973.93
2017-09-03T16:42:03.424Z,97971.02
2017-09-03T16:44:31.764Z,97967.23
2017-09-03T16:47:00.111Z,97968.17
2017-09-03T16:49:28.446Z,97960.45
2017-09-03T16:51:56.790Z,97962.23
2017-09-03T16:54:25.111Z,97960.77
2017-09-03T16:56:53.443Z,97962.48
2017-09-03T16:59:21.778Z,97957.97
2017-09-03T17:01:50.098Z,97959.00
2017-09-03T17:04:18.439Z,97958.47
2017-09-03T17:06:46.762Z,97959.00
2017-09-03T17:09:15.083Z,97953.95
2017-09-03T17:11:43.445Z,97952.19
2017-09-03T17:14:11.772Z,97952.89
2017-09-03T17:16:40.102Z,97959.84
2017-09-03T17:19:08.446Z,97953.38
2017-09-03T17:21:36.763Z,97965.02
2017-09-03T17:24:05.086Z,97963.06
2017-09-03T17:26:33.430Z,97969.09
2017-09-03T17:29:01.814Z,97976.20
2017-09-03T17:31:31.045Z,97977.05
2017-09-03T17:33:59.368Z,97975.34
2017-09-03T17:36:29.570Z,97977.98
2017-09-03T17:39:00.286Z,97978.07
2017-09-03T17:41:28.598Z,97988.98
2017-09-03T17:43:57.679Z,97985.43
2017-09-03T17:59:47.237Z,97994.88
2017-09-03T18:02:15.554Z,98000.73
2017-09-03T18:04:43.874Z,98004.59
2017-09-03T18:07:12.207Z,98001.05
2017-09-03T18:09:40.532Z,97996.37
2017-09-03T18:12:08.888Z,98000.00
2017-09-03T18:14:37.214Z,98000.05
2017-09-03T18:17:05.551Z,97997.70
2017-09-03T18:19:33.871Z,98001.16
2017-09-03T18:22:02.217Z,98000.73
2017-09-03T18:24:30.536Z,97999.56
2017-09-03T18:26:58.906Z,98003.70
2017-09-03T18:29:28.926Z,97998.78
2017-09-03T18:31:57.243Z,98006.34
2017-09-03T18:34:25.583Z,98010.78
2017-09-03T18:50:24.824Z,98016.34
2017-09-03T18:52:55.888Z,98017.90
2017-09-03T18:55:24.234Z,98015.27
2017-09-03T18:57:55.862Z,98014.30
2017-09-03T19:00:24.574Z,98014.20
2017-09-03T19:02:52.891Z,98015.50
2017-09-03T19:05:21.245Z,98016.48
2017-09-03T19:07:49.574Z,98018.77
2017-09-03T19:10:17.952Z,98020.03
2017-09-03T19:12:46.274Z,98018.86
2017-09-03T19:15:14.614Z,98021.47
2017-09-03T19:17:42.935Z,98025.34
2017-09-03T19:20:11.256Z,98019.44
2017-09-03T19:22:39.603Z,98024.50
2017-09-03T19:25:07.940Z,98028.59
2017-09-03T19:27:36.263Z,98034.95
2017-09-03T19:30:04.614Z,98036.38
2017-09-03T19:32:32.925Z,98034.98
2017-09-03T19:35:01.242Z,98035.27
2017-09-03T19:37:29.962Z,98042.92
2017-09-03T19:39:58.298Z,98037.77
2017-09-03T19:42:26.620Z,98044.11
2017-09-03T19:44:54.968Z,98048.73
2017-09-03T19:47:23.283Z,98045.39
2017-09-03T19:49:51.614Z,98045.13
2017-09-03T19:52:19.965Z,98052.63
2017-09-03T19:54:48.282Z,98046.60
2017-09-03T19:57:16.600Z,98052.50
2017-09-03T19:59:44.958Z,98053.86
2017-09-03T20:02:13.291Z,98052.59
2017-09-03T20:04:41.615Z,98055.49
2017-09-03T20:07:09.969Z,98048.28
2017-09-03T20:09:38.294Z,98053.73
2017-09-03T20:12:06.611Z,98053.27
2017-09-03T20:14:34.955Z,98052.83
2017-09-03T20:17:03.271Z,98057.19
2017-09-03T20:19:31.592Z,98054.88
2017-09-03T20:21:59.941Z,98065.36
2017-09-03T20:24:28.267Z,98066.52
2017-09-03T20:26:56.594Z,98058.95
2017-09-03T20:29:24.992Z,98061.62
2017-09-03T20:31:53.319Z,98058.11
2017-09-03T20:34:21.635Z,98054.94
2017-09-03T20:36:49.978Z,98054.45
2017-09-03T20:39:18.299Z,98059.38
2017-09-03T20:41:46.634Z,98057.72
2017-09-03T20:44:14.994Z,98054.00
2017-09-03T20:46:43.313Z,98060.39
2017-09-03T20:49:11.634Z,98056.48
2017-09-03T20:51:39.979Z,98062.22
2017-09-03T20:54:08.306Z,98064.75
2017-09-03T20:56:36.618Z,98059.59
2017-09-03T20:59:04.968Z,98065.39
2017-09-03T21:01:33.283Z,98064.92
2017-09-03T21:04:01.594Z,98063.66
2017-09-03T21:06:29.944Z,98061.95
2017-09-03T21:08:58.270Z,98062.18
2017-09-03T21:11:26.599Z,98062.38
2017-09-03T21:13:54.940Z,98065.59
2017-09-03T21:16:23.267Z,98057.92
2017-09-03T21:18:51.590Z,98054.85
2017-09-03T21:21:19.947Z,98058.61
2017-09-03T21:23:48.268Z,98054.95
2017-09-03T21:26:16.654Z,98050.02
2017-09-03T21:28:44.994Z,98060.50
2017-09-03T21:31:13.322Z,98060.67
2017-09-03T21:33:41.643Z,98058.22
2017-09-03T21:36:09.994Z,98055.16
2017-09-03T21:38:38.330Z,98052.66
2017-09-03T21:41:06.791Z,98056.08
2017-09-03T21:43:35.424Z,98059.52
2017-09-03T21:46:03.831Z,98054.38
2017-09-03T21:48:32.159Z,98052.66
2017-09-03T21:51:00.590Z,98056.97
2017-09-03T21:53:29.038Z,98054.22
2017-09-03T21:55:57.487Z,98054.70
2017-09-03T21:58:25.909Z,98053.98
2017-09-03T22:00:54.317Z,98049.19
2017-09-03T22:03:22.800Z,98045.89
2017-09-03T22:05:51.163Z,98046.77
2017-09-03T22:08:19.577Z,98052.95
2017-09-03T22:10:47.927Z,98043.97
2017-09-03T22:13:16.382Z,98054.73
2017-09-03T22:15:44.798Z,98047.92
2017-09-03T22:18:13.206Z,98046.73
2017-09-03T22:20:41.647Z,98037.77
2017-09-03T22:23:10.050Z,98042.05
2017-09-03T22:25:38.443Z,98047.51
2017-09-03T22:28:06.852Z,98042.27
2017-09-03T22:30:35.204Z,98037.08
2017-09-03T22:33:03.521Z,98034.95
2017-09-03T22:35:31.871Z,98043.39
2017-09-03T22:38:00.206Z,98040.52
2017-09-03T22:40:28.557Z,98038.80
2017-09-03T22:42:56.869Z,98045.66
2017-09-03T22:45:25.205Z,98048.59
2017-09-03T22:47:53.593Z,98045.75
2017-09-03T22:50:21.923Z,98044.50
2017-09-03T22:52:50.266Z,98046.28
2017-09-03T22:55:18.586Z,98049.20
2017-09-03T22:57:46.906Z,98055.17
2017-09-03T23:00:15.322Z,98054.77
2017-09-03T23:02:43.652Z,98049.65
2017-09-03T23:05:11.975Z,98053.49
2017-09-03T23:07:40.319Z,98058.59
2017-09-03T23:10:08.647Z,98055.66
2017-09-03T23:12:36.987Z,98059.47
2017-09-03T23:15:05.302Z,98063.86
2017-09-03T23:17:33.654Z,98064.27
2017-09-03T23:20:01.970Z,98067.33
2017-09-03T23:22:36.102Z,98060.17
2017-09-03T23:25:04.415Z,98060.20
2017-09-03T23:27:32.730Z,98054.23
2017-09-03T23:30:01.070Z,98056.38
2017-09-03T23:32:29.394Z,98053.31
2017-09-03T23:34:57.714Z,98048.64
2017-09-03T23:37:26.054Z,98052.09
2017-09-03T23:39:54.366Z,98045.29
2017-09-03T23:42:22.691Z,98043.96
2017-09-03T23:44:51.030Z,98041.86
2017-09-03T23:47:19.347Z,98046.98
2017-09-03T23:49:47.691Z,98041.92
2017-09-03T23:52:15.994Z,98044.52
2017-09-03T23:54:44.314Z,98035.95
2017-09-03T23:57:12.667Z,98039.34
2017-09-03T23:59:40.979Z,98031.22
